Kilby, North Carolina
Current Conditions -  °F | °C
As of 8:53 AM on Saturday 20 Dec 2014 (Local Time) from KHKY Reporting Station
Overcast Overcast  
Wind Chill: 35°   Ceiling: 4500
Heat Index: 39°   Visibility: 10mi
Dew Point: 30°   Wind: 6mph
Humidity: 70%   Direction: 60°ENE
Pressure: 30.23"   Gusts: NA
Location:  35.9243°N, 81.216°W
Report Text: KHKY 201353Z AUTO 06005KT 10SM FEW033 BKN045 OVC070 04/M01 A3023 RMK AO2 RAB1255E40 SLP232 P0000 T00391011
Loading
Personal Weather Stations






























Interactive Weather Map New forecast layout! Learn more

10-Day Weather Forecast

Advertisements
Track Severe Weather on mobile